Ashby, Nebraska
Current Conditions -  °F | °C
As of 9:53 AM on Saturday 20 Dec 2014 (Local Time) from KAIA Reporting Station
Clear Clear  
Wind Chill: -9°   Ceiling: Unl
Heat Index: -4°   Visibility: 10mi
Dew Point: -7°   Wind: 7mph
Humidity: 84%   Direction: 270°W
Pressure: 29.97"   Gusts: NA
Location:  42.02°N, 101.93°W
Report Text: KAIA 201653Z AUTO 27006KT 10SM CLR M04/M07 A2997 RMK AO2 SLP192 T10441067
Loading
Personal Weather Stations






























Interactive Weather Map New forecast layout! Learn more

10-Day Weather Forecast

Advertisements
Track Severe Weather on mobile